Time;durP1;ratioP1;P1;durP2;ratioP2;P2;SDS_P1;SDS_P2;PMS_P1;PMS_P2;Temp;Humidity;BMP_temperature;BMP_pressure;BME280_temperature;BME280_humidity;BME280_pressure;Samples;Min_cycle;Max_cycle;Signal;HPM_P1;HPM_P2
2022/02/19 00:00:23;;;;;;;5.28;3.22;;;;;;;;;;143728;564;46010;-65
2022/02/19 00:02:51;;;;;;;6.45;2.80;;;;;;;;;;143728;591;46019;-65
2022/02/19 00:05:19;;;;;;;7.62;3.08;;;;;;;;;;143730;626;46022;-65
2022/02/19 00:07:46;;;;;;;6.37;3.42;;;;;;;;;;143726;580;46019;-65
2022/02/19 00:10:14;;;;;;;7.57;4.12;;;;;;;;;;143728;577;46010;-65
2022/02/19 00:12:40;;;;;;;7.18;3.70;;;;;;;;;;143728;598;46018;-64
2022/02/19 00:15:08;;;;;;;5.87;3.37;;;;;;;;;;143732;605;46023;-65
2022/02/19 00:17:34;;;;;;;7.45;3.53;;;;;;;;;;143726;589;46018;-64
2022/02/19 00:20:02;;;;;;;6.10;2.85;;;;;;;;;;143727;608;46010;-65
2022/02/19 00:22:29;;;;;;;8.20;3.42;;;;;;;;;;143728;601;46018;-65
2022/02/19 00:24:56;;;;;;;6.10;3.47;;;;;;;;;;143731;578;46010;-65
2022/02/19 00:27:23;;;;;;;8.85;3.85;;;;;;;;;;143727;588;46020;-65
2022/02/19 00:29:50;;;;;;;6.62;3.60;;;;;;;;;;143729;596;46010;-65
2022/02/19 00:32:17;;;;;;;5.93;3.33;;;;;;;;;;143728;581;46019;-65
2022/02/19 00:34:44;;;;;;;5.20;3.10;;;;;;;;;;143731;572;46022;-66
2022/02/19 00:37:11;;;;;;;6.40;4.05;;;;;;;;;;143726;592;47019;-65
2022/02/19 00:39:38;;;;;;;6.82;3.47;;;;;;;;;;143729;577;46010;-66
2022/02/19 00:42:05;;;;;;;11.20;4.60;;;;;;;;;;143729;638;46018;-66
2022/02/19 00:44:33;;;;;;;16.67;6.97;;;;;;;;;;143730;651;46022;-66
2022/02/19 00:47:00;;;;;;;11.73;5.87;;;;;;;;;;143727;588;46018;-66
2022/02/19 00:49:28;;;;;;;16.12;6.30;;;;;;;;;;143728;616;46010;-65
2022/02/19 00:51:55;;;;;;;9.80;5.00;;;;;;;;;;143727;600;46018;-66
2022/02/19 00:54:22;;;;;;;7.30;4.03;;;;;;;;;;143730;576;46023;-66
2022/02/19 00:56:49;;;;;;;12.52;5.78;;;;;;;;;;143729;588;46018;-66
2022/02/19 00:59:16;;;;;;;6.40;3.62;;;;;;;;;;143729;618;46011;-65
2022/02/19 01:01:43;;;;;;;6.03;3.45;;;;;;;;;;143730;564;46019;-66
2022/02/19 01:04:10;;;;;;;8.15;3.42;;;;;;;;;;143733;621;45036;-66
2022/02/19 01:06:37;;;;;;;6.45;3.20;;;;;;;;;;143727;576;46018;-66
2022/02/19 01:09:04;;;;;;;8.25;4.45;;;;;;;;;;143731;597;46010;-66
2022/02/19 01:11:31;;;;;;;16.73;8.07;;;;;;;;;;143729;583;46018;-66
2022/02/19 01:13:58;;;;;;;13.18;5.60;;;;;;;;;;143730;611;46022;-65
2022/02/19 01:16:25;;;;;;;11.10;6.65;;;;;;;;;;143725;625;47021;-65
2022/02/19 01:18:52;;;;;;;15.07;7.18;;;;;;;;;;143729;647;46010;-65
2022/02/19 01:21:20;;;;;;;13.68;6.40;;;;;;;;;;143728;598;46018;-65
2022/02/19 01:23:47;;;;;;;10.82;5.12;;;;;;;;;;143730;590;46023;-65
2022/02/19 01:26:14;;;;;;;8.18;4.78;;;;;;;;;;143728;573;46018;-65
2022/02/19 01:28:41;;;;;;;9.75;4.57;;;;;;;;;;143729;593;46011;-65
2022/02/19 01:31:09;;;;;;;10.65;4.60;;;;;;;;;;143728;640;46019;-65
2022/02/19 01:33:36;;;;;;;13.00;5.40;;;;;;;;;;143730;598;46022;-66
2022/02/19 01:36:03;;;;;;;9.75;4.82;;;;;;;;;;143728;597;46019;-65
2022/02/19 01:38:31;;;;;;;10.02;5.93;;;;;;;;;;143729;571;46010;-66
2022/02/19 01:40:59;;;;;;;13.07;6.80;;;;;;;;;;143729;625;46018;-65
2022/02/19 01:43:26;;;;;;;19.05;8.68;;;;;;;;;;143731;569;46022;-65
2022/02/19 01:45:53;;;;;;;11.02;5.87;;;;;;;;;;143726;605;46019;-65
2022/02/19 01:48:20;;;;;;;14.70;7.25;;;;;;;;;;143728;596;46010;-65
2022/02/19 01:50:47;;;;;;;13.13;6.62;;;;;;;;;;143728;570;46018;-65
2022/02/19 01:53:17;;;;;;;15.82;6.60;;;;;;;;;;143729;671;46023;-65
2022/02/19 01:55:46;;;;;;;14.85;5.70;;;;;;;;;;143728;628;46018;-66
2022/02/19 01:58:13;;;;;;;13.20;5.60;;;;;;;;;;143731;592;46010;-66
2022/02/19 02:00:41;;;;;;;6.60;4.30;;;;;;;;;;143727;585;46019;-65
2022/02/19 02:03:08;;;;;;;11.57;5.10;;;;;;;;;;143730;613;46022;-65
2022/02/19 02:05:36;;;;;;;10.32;5.05;;;;;;;;;;143728;573;46018;-65
2022/02/19 02:08:07;;;;;;;10.45;5.12;;;;;;;;;;143729;593;46011;-65
2022/02/19 02:10:37;;;;;;;11.35;5.87;;;;;;;;;;143728;564;46018;-65
2022/02/19 02:13:04;;;;;;;11.98;5.93;;;;;;;;;;143732;581;46010;-65
2022/02/19 02:15:33;;;;;;;12.45;6.47;;;;;;;;;;143726;642;46019;-65
2022/02/19 02:18:01;;;;;;;15.15;6.53;;;;;;;;;;143728;585;46010;-65
2022/02/19 02:20:29;;;;;;;13.62;6.75;;;;;;;;;;143726;575;46036;-65
2022/02/19 02:22:57;;;;;;;10.57;6.18;;;;;;;;;;143730;626;46021;-65
2022/02/19 02:25:30;;;;;;;9.35;5.00;;;;;;;;;;143727;571;46020;-66
2022/02/19 02:27:57;;;;;;;13.38;6.28;;;;;;;;;;143729;661;46010;-65
2022/02/19 02:30:24;;;;;;;10.45;5.97;;;;;;;;;;143728;586;46021;-66
2022/02/19 02:32:51;;;;;;;11.05;5.65;;;;;;;;;;143733;628;45028;-66
2022/02/19 02:35:19;;;;;;;10.27;5.75;;;;;;;;;;143728;573;46020;-66
2022/02/19 02:37:46;;;;;;;14.38;5.75;;;;;;;;;;143730;663;46010;-66
2022/02/19 02:40:14;;;;;;;10.07;5.50;;;;;;;;;;143728;599;46020;-66
2022/02/19 02:42:41;;;;;;;9.73;5.30;;;;;;;;;;143732;598;46020;-66
2022/02/19 02:45:08;;;;;;;9.68;5.20;;;;;;;;;;143729;573;46021;-66
2022/02/19 02:47:36;;;;;;;11.00;4.80;;;;;;;;;;143729;659;46010;-66
2022/02/19 02:50:04;;;;;;;9.15;4.90;;;;;;;;;;143728;593;46020;-66
2022/02/19 02:52:31;;;;;;;9.55;5.20;;;;;;;;;;143731;632;46012;-66
2022/02/19 02:54:58;;;;;;;8.35;4.90;;;;;;;;;;143726;573;46020;-66
2022/02/19 02:57:25;;;;;;;8.68;4.62;;;;;;;;;;143731;689;46010;-65
2022/02/19 02:59:52;;;;;;;9.05;5.45;;;;;;;;;;143728;601;46020;-65
2022/02/19 03:02:19;;;;;;;10.52;4.55;;;;;;;;;;143732;616;46020;-66
2022/02/19 03:04:46;;;;;;;8.90;4.57;;;;;;;;;;143728;599;46020;-66
2022/02/19 03:07:13;;;;;;;8.52;4.95;;;;;;;;;;143728;585;46011;-66
2022/02/19 03:09:40;;;;;;;9.88;5.60;;;;;;;;;;143730;583;46020;-66
2022/02/19 03:12:10;;;;;;;11.88;5.80;;;;;;;;;;143730;588;46020;-65
2022/02/19 03:14:37;;;;;;;11.68;4.93;;;;;;;;;;143728;576;46012;-66
2022/02/19 03:17:04;;;;;;;12.65;6.32;;;;;;;;;;143731;576;46010;-66
2022/02/19 03:19:31;;;;;;;9.98;5.55;;;;;;;;;;143729;699;46020;-66
2022/02/19 03:21:58;;;;;;;10.32;5.47;;;;;;;;;;143731;580;46036;-66
2022/02/19 03:24:25;;;;;;;12.25;5.68;;;;;;;;;;143728;657;46020;-65
2022/02/19 03:26:52;;;;;;;10.73;5.05;;;;;;;;;;143732;577;46010;-65
2022/02/19 03:29:19;;;;;;;11.77;5.22;;;;;;;;;;143728;585;46021;-66
2022/02/19 03:31:47;;;;;;;11.05;5.93;;;;;;;;;;143731;714;46010;-66
2022/02/19 03:34:14;;;;;;;10.10;5.20;;;;;;;;;;143727;618;46020;-66
2022/02/19 03:36:41;;;;;;;17.87;6.62;;;;;;;;;;143730;564;46010;-66
2022/02/19 03:39:08;;;;;;;10.65;5.22;;;;;;;;;;143728;626;46021;-66
2022/02/19 03:41:35;;;;;;;9.35;5.40;;;;;;;;;;143731;640;46020;-66
2022/02/19 03:44:02;;;;;;;9.23;5.05;;;;;;;;;;143729;678;46021;-66
2022/02/19 03:46:32;;;;;;;10.23;5.22;;;;;;;;;;143732;583;46010;-66
2022/02/19 03:49:00;;;;;;;10.75;5.62;;;;;;;;;;143730;599;46022;-66
2022/02/19 03:51:27;;;;;;;17.95;5.75;;;;;;;;;;143732;576;46010;-66
2022/02/19 03:53:54;;;;;;;11.27;5.40;;;;;;;;;;143728;581;46020;-66
2022/02/19 03:56:21;;;;;;;10.70;5.60;;;;;;;;;;143732;572;46010;-66
2022/02/19 03:58:48;;;;;;;7.03;4.47;;;;;;;;;;143728;564;46021;-66
2022/02/19 04:01:15;;;;;;;14.30;7.45;;;;;;;;;;143732;751;46010;-65
2022/02/19 04:03:42;;;;;;;15.75;7.95;;;;;;;;;;143728;578;46020;-66
2022/02/19 04:06:09;;;;;;;12.30;6.03;;;;;;;;;;143729;576;46011;-66
2022/02/19 04:08:36;;;;;;;11.90;6.82;;;;;;;;;;143730;571;45021;-65
2022/02/19 04:11:03;;;;;;;11.57;5.93;;;;;;;;;;143730;602;46012;-65
2022/02/19 04:13:30;;;;;;;13.32;6.35;;;;;;;;;;143728;570;46021;-66
2022/02/19 04:15:57;;;;;;;10.70;5.40;;;;;;;;;;143732;586;46010;-66
2022/02/19 04:18:24;;;;;;;10.80;5.50;;;;;;;;;;143728;679;46020;-65
2022/02/19 04:20:51;;;;;;;8.93;4.97;;;;;;;;;;143731;606;46010;-66
2022/02/19 04:23:18;;;;;;;13.38;6.10;;;;;;;;;;143728;572;46023;-66
2022/02/19 04:25:46;;;;;;;12.32;6.37;;;;;;;;;;143729;626;46010;-66
2022/02/19 04:28:13;;;;;;;15.77;7.50;;;;;;;;;;143728;642;46020;-65
2022/02/19 04:30:40;;;;;;;13.70;7.30;;;;;;;;;;143732;662;46010;-66
2022/02/19 04:33:07;;;;;;;9.80;5.90;;;;;;;;;;143728;653;46020;-66
2022/02/19 04:35:34;;;;;;;8.43;5.80;;;;;;;;;;143733;570;46010;-65
2022/02/19 04:38:01;;;;;;;11.27;5.93;;;;;;;;;;143731;675;46021;-66
2022/02/19 04:40:28;;;;;;;11.52;6.07;;;;;;;;;;143732;573;46010;-66
2022/02/19 04:42:55;;;;;;;10.00;5.97;;;;;;;;;;143727;728;46029;-65
2022/02/19 04:45:23;;;;;;;9.35;5.50;;;;;;;;;;143733;607;46010;-66
2022/02/19 04:47:50;;;;;;;14.13;6.43;;;;;;;;;;143729;675;46020;-65
2022/02/19 04:50:17;;;;;;;15.40;7.90;;;;;;;;;;143730;685;46020;-65
2022/02/19 04:52:44;;;;;;;16.75;8.02;;;;;;;;;;143729;603;46021;-66
2022/02/19 04:55:11;;;;;;;13.27;7.35;;;;;;;;;;143733;655;46010;-66
2022/02/19 04:57:43;;;;;;;19.12;8.40;;;;;;;;;;143727;577;46020;-66
2022/02/19 05:00:15;;;;;;;12.05;5.60;;;;;;;;;;143733;601;45021;-66
2022/02/19 05:02:42;;;;;;;10.70;6.75;;;;;;;;;;143725;618;46020;-66
2022/02/19 05:05:10;;;;;;;10.82;5.32;;;;;;;;;;143731;584;46010;-66
2022/02/19 05:07:37;;;;;;;11.77;7.10;;;;;;;;;;143727;577;46021;-66
2022/02/19 05:10:06;;;;;;;10.93;5.90;;;;;;;;;;143731;587;46010;-66
2022/02/19 05:12:33;;;;;;;13.35;6.00;;;;;;;;;;143725;650;47021;-66
2022/02/19 05:15:03;;;;;;;11.75;6.50;;;;;;;;;;143729;583;46010;-65
2022/02/19 05:17:30;;;;;;;10.80;5.68;;;;;;;;;;143727;570;46020;-66
2022/02/19 05:19:57;;;;;;;9.75;5.18;;;;;;;;;;143731;587;46020;-66
2022/02/19 05:22:24;;;;;;;11.48;5.85;;;;;;;;;;143723;586;47023;-65
2022/02/19 05:24:51;;;;;;;9.35;5.80;;;;;;;;;;143727;604;46010;-66
2022/02/19 05:27:18;;;;;;;15.50;6.12;;;;;;;;;;143726;582;46020;-66
2022/02/19 05:29:45;;;;;;;14.13;5.80;;;;;;;;;;143728;659;46012;-66
2022/02/19 05:32:12;;;;;;;19.05;6.43;;;;;;;;;;143726;603;46020;-66
2022/02/19 05:34:39;;;;;;;14.05;6.45;;;;;;;;;;143731;585;46010;-66
2022/02/19 05:37:06;;;;;;;17.55;6.45;;;;;;;;;;143726;654;46021;-66
2022/02/19 05:39:33;;;;;;;12.43;7.07;;;;;;;;;;143728;567;46020;-66
2022/02/19 05:42:00;;;;;;;7.90;5.28;;;;;;;;;;143726;603;46022;-66
2022/02/19 05:44:27;;;;;;;14.38;6.53;;;;;;;;;;143731;682;46010;-66
2022/02/19 05:46:54;;;;;;;12.07;6.18;;;;;;;;;;143726;593;46020;-66
2022/02/19 05:49:21;;;;;;;11.25;6.35;;;;;;;;;;143728;564;46020;-66
2022/02/19 05:51:48;;;;;;;11.77;6.87;;;;;;;;;;143725;672;46020;-66
2022/02/19 05:54:15;;;;;;;15.57;6.62;;;;;;;;;;143731;569;46010;-66
2022/02/19 05:56:42;;;;;;;12.43;6.75;;;;;;;;;;143726;584;46020;-66
2022/02/19 05:59:09;;;;;;;11.70;6.35;;;;;;;;;;143728;583;46021;-66
2022/02/19 06:01:36;;;;;;;19.75;7.55;;;;;;;;;;143724;580;46022;-65
2022/02/19 06:04:03;;;;;;;13.60;6.07;;;;;;;;;;143730;689;46010;-66
2022/02/19 06:06:30;;;;;;;12.00;6.07;;;;;;;;;;143727;664;46021;-66
2022/02/19 06:08:57;;;;;;;11.75;6.57;;;;;;;;;;143729;662;46012;-66
2022/02/19 06:11:24;;;;;;;14.00;6.85;;;;;;;;;;143727;584;46020;-66
2022/02/19 06:13:51;;;;;;;13.98;7.15;;;;;;;;;;143728;692;46010;-66
2022/02/19 06:16:18;;;;;;;13.73;7.80;;;;;;;;;;143724;596;46020;-66
2022/02/19 06:18:46;;;;;;;20.08;9.68;;;;;;;;;;143730;572;46010;-66
2022/02/19 06:21:13;;;;;;;40.35;20.77;;;;;;;;;;143725;570;46022;-65
2022/02/19 06:23:40;;;;;;;24.77;12.60;;;;;;;;;;143727;575;46010;-66
2022/02/19 06:26:07;;;;;;;27.27;11.82;;;;;;;;;;143726;604;46020;-66
2022/02/19 06:28:34;;;;;;;39.45;20.23;;;;;;;;;;143730;628;46010;-67
2022/02/19 06:31:01;;;;;;;22.70;10.13;;;;;;;;;;143726;633;46020;-66
2022/02/19 06:33:28;;;;;;;20.33;10.00;;;;;;;;;;143728;631;46010;-66
2022/02/19 06:35:56;;;;;;;17.00;9.02;;;;;;;;;;143725;570;46021;-66
2022/02/19 06:38:23;;;;;;;20.58;9.93;;;;;;;;;;143730;606;46010;-66
2022/02/19 06:40:50;;;;;;;31.50;9.88;;;;;;;;;;143726;580;46020;-67
2022/02/19 06:43:17;;;;;;;23.80;11.68;;;;;;;;;;143726;594;46010;-68
2022/02/19 06:45:44;;;;;;;18.15;9.65;;;;;;;;;;143727;579;46020;-68
2022/02/19 06:48:11;;;;;;;26.50;10.60;;;;;;;;;;143729;607;46020;-68
2022/02/19 06:50:38;;;;;;;21.50;9.10;;;;;;;;;;143725;576;46021;-69
2022/02/19 06:53:05;;;;;;;14.50;8.35;;;;;;;;;;143726;591;46010;-68
2022/02/19 06:55:32;;;;;;;22.75;10.18;;;;;;;;;;143724;664;46020;-69
2022/02/19 06:57:59;;;;;;;16.20;8.82;;;;;;;;;;143728;574;46020;-69
2022/02/19 07:00:26;;;;;;;18.10;8.90;;;;;;;;;;143725;610;46020;-70
2022/02/19 07:02:54;;;;;;;25.00;9.43;;;;;;;;;;143727;647;46010;-71
2022/02/19 07:05:21;;;;;;;20.40;10.07;;;;;;;;;;143726;600;46021;-70
2022/02/19 07:07:48;;;;;;;23.73;11.68;;;;;;;;;;143730;613;46010;-71
2022/02/19 07:10:15;;;;;;;22.45;8.93;;;;;;;;;;143726;583;46020;-70
2022/02/19 07:12:42;;;;;;;24.40;9.60;;;;;;;;;;143727;588;46011;-70
2022/02/19 07:15:12;;;;;;;23.15;10.13;;;;;;;;;;143724;649;46020;-70
2022/02/19 07:17:50;;;;;;;17.62;10.10;;;;;;;;;;143728;589;46020;-71
2022/02/19 07:20:17;;;;;;;19.20;10.50;;;;;;;;;;143726;589;46021;-70
2022/02/19 07:22:44;;;;;;;19.65;11.70;;;;;;;;;;143727;571;46010;-70
2022/02/19 07:25:12;;;;;;;28.33;12.77;;;;;;;;;;143724;593;46020;-70
2022/02/19 07:27:40;;;;;;;27.98;12.32;;;;;;;;;;143729;742;46020;-69
2022/02/19 07:30:09;;;;;;;35.58;16.52;;;;;;;;;;143725;603;46020;-70
2022/02/19 07:32:39;;;;;;;36.60;15.88;;;;;;;;;;143727;601;46010;-70
2022/02/19 07:35:07;;;;;;;32.13;14.32;;;;;;;;;;143726;598;46021;-69
2022/02/19 07:37:36;;;;;;;23.98;12.43;;;;;;;;;;143730;569;46010;-67
2022/02/19 07:40:11;;;;;;;20.77;11.48;;;;;;;;;;143724;630;46022;-70
2022/02/19 07:42:38;;;;;;;21.30;11.98;;;;;;;;;;143725;609;46917;-68
2022/02/19 07:45:06;;;;;;;22.17;12.05;;;;;;;;;;143726;632;46021;-67
2022/02/19 07:47:34;;;;;;;24.83;13.02;;;;;;;;;;143728;604;47020;-68
2022/02/19 07:58:19;;;;;;;;;;;;;;;;;;143732;981;46021;-68
2022/02/19 08:00:57;;;;;;;32.63;12.27;;;;;;;;;;143731;601;46020;-68
2022/02/19 08:03:27;;;;;;;22.50;13.68;;;;;;;;;;143726;591;46010;-68
2022/02/19 08:05:54;;;;;;;18.90;13.27;;;;;;;;;;143726;565;46021;-68
2022/02/19 08:08:23;;;;;;;27.67;15.80;;;;;;;;;;143730;617;46010;-68
2022/02/19 08:10:50;;;;;;;34.30;20.55;;;;;;;;;;143726;710;46020;-68
2022/02/19 08:13:19;;;;;;;24.52;16.95;;;;;;;;;;143727;569;46010;-69
2022/02/19 08:15:46;;;;;;;29.20;17.80;;;;;;;;;;143725;952;46020;-67
2022/02/19 08:18:14;;;;;;;26.87;16.17;;;;;;;;;;143726;593;46010;-68
2022/02/19 08:20:43;;;;;;;30.48;17.52;;;;;;;;;;143722;739;47021;-67
2022/02/19 08:23:12;;;;;;;24.50;15.90;;;;;;;;;;143724;618;46020;-68
2022/02/19 08:25:39;;;;;;;12.43;7.85;;;;;;;;;;143725;583;46020;-68
2022/02/19 08:28:07;;;;;;;12.82;7.28;;;;;;;;;;143729;584;46010;-68
2022/02/19 08:30:39;;;;;;;13.60;8.20;;;;;;;;;;143725;593;46020;-69
2022/02/19 08:33:07;;;;;;;17.35;7.93;;;;;;;;;;143726;600;47020;-68
2022/02/19 08:35:34;;;;;;;18.00;9.10;;;;;;;;;;143726;606;46021;-69
2022/02/19 08:38:02;;;;;;;16.62;9.05;;;;;;;;;;143730;620;46010;-68
2022/02/19 08:40:29;;;;;;;12.00;6.90;;;;;;;;;;143723;582;47039;-68
2022/02/19 08:42:56;;;;;;;13.13;6.97;;;;;;;;;;143726;612;46919;-69
2022/02/19 08:45:23;;;;;;;11.65;5.47;;;;;;;;;;143726;580;46020;-69
2022/02/19 08:47:54;;;;;;;11.75;5.97;;;;;;;;;;143728;614;46020;-68
2022/02/19 08:50:21;;;;;;;13.35;7.10;;;;;;;;;;143725;619;46023;-68
2022/02/19 08:52:49;;;;;;;12.73;7.43;;;;;;;;;;143725;571;47010;-68
2022/02/19 08:55:16;;;;;;;18.92;10.70;;;;;;;;;;143727;576;46020;-66
2022/02/19 08:57:45;;;;;;;9.75;4.95;;;;;;;;;;143730;596;46011;-68
2022/02/19 09:00:13;;;;;;;11.52;6.85;;;;;;;;;;143726;595;46020;-68
2022/02/19 09:02:41;;;;;;;9.32;4.22;;;;;;;;;;143724;590;46918;-69
2022/02/19 09:05:11;;;;;;;12.18;6.72;;;;;;;;;;143726;574;46021;-69
2022/02/19 09:07:41;;;;;;;14.73;8.02;;;;;;;;;;143730;599;46010;-68
2022/02/19 09:10:10;;;;;;;10.60;5.78;;;;;;;;;;143724;592;46020;-69
2022/02/19 09:12:38;;;;;;;9.10;4.68;;;;;;;;;;143726;616;46919;-68
2022/02/19 09:15:05;;;;;;;10.05;6.57;;;;;;;;;;143726;603;46020;-68
2022/02/19 09:17:32;;;;;;;12.93;7.97;;;;;;;;;;143728;623;46020;-67
2022/02/19 09:20:00;;;;;;;5.65;4.00;;;;;;;;;;143724;577;47010;-68
2022/02/19 09:22:27;;;;;;;13.65;6.47;;;;;;;;;;143726;608;46010;-67
2022/02/19 09:24:53;;;;;;;10.45;5.75;;;;;;;;;;143727;581;46020;-67
2022/02/19 09:27:20;;;;;;;13.68;5.68;;;;;;;;;;143730;635;46010;-67
2022/02/19 09:29:48;;;;;;;9.98;5.40;;;;;;;;;;143727;625;46020;-68
2022/02/19 09:32:15;;;;;;;12.55;6.65;;;;;;;;;;143726;563;46010;-67
2022/02/19 09:34:42;;;;;;;14.68;5.62;;;;;;;;;;143726;594;46021;-67
2022/02/19 09:37:09;;;;;;;12.23;6.47;;;;;;;;;;143727;605;46020;-67
2022/02/19 09:39:36;;;;;;;13.20;4.95;;;;;;;;;;143725;622;46020;-67
2022/02/19 09:42:03;;;;;;;9.63;5.93;;;;;;;;;;143726;606;46010;-68
2022/02/19 09:44:31;;;;;;;10.75;5.25;;;;;;;;;;143724;582;46020;-67
2022/02/19 09:46:58;;;;;;;7.97;4.40;;;;;;;;;;143728;569;46038;-67
2022/02/19 09:49:26;;;;;;;10.30;4.80;;;;;;;;;;143724;605;47018;-67
2022/02/19 09:51:55;;;;;;;7.82;3.50;;;;;;;;;;143727;569;46010;-67
2022/02/19 09:54:23;;;;;;;9.48;4.40;;;;;;;;;;143725;609;46018;-68
2022/02/19 09:56:50;;;;;;;9.35;4.87;;;;;;;;;;143728;579;46023;-67
2022/02/19 09:59:17;;;;;;;13.00;6.12;;;;;;;;;;143726;569;46018;-67
2022/02/19 10:02:00;;;;;;;11.10;5.28;;;;;;;;;;143727;571;46010;-68
2022/02/19 10:04:27;;;;;;;8.68;4.72;;;;;;;;;;143726;578;46019;-67
2022/02/19 10:06:59;;;;;;;9.52;3.75;;;;;;;;;;143728;584;46022;-68
2022/02/19 10:09:27;;;;;;;9.98;4.35;;;;;;;;;;143727;577;46018;-68
2022/02/19 10:12:07;;;;;;;6.72;3.42;;;;;;;;;;143727;581;46011;-68
2022/02/19 10:14:35;;;;;;;9.18;5.20;;;;;;;;;;143727;585;46018;-67
2022/02/19 10:17:17;;;;;;;10.32;4.87;;;;;;;;;;143729;569;46022;-69
2022/02/19 10:19:59;;;;;;;12.48;4.30;;;;;;;;;;143726;603;46020;-69
2022/02/19 10:22:37;;;;;;;8.40;4.80;;;;;;;;;;143727;570;46010;-68
2022/02/19 10:25:09;;;;;;;7.70;4.03;;;;;;;;;;143729;699;45018;-68
2022/02/19 10:27:45;;;;;;;7.70;4.72;;;;;;;;;;143730;570;46011;-67
2022/02/19 10:30:14;;;;;;;8.40;4.47;;;;;;;;;;143725;605;46018;-67
2022/02/19 10:32:52;;;;;;;10.38;5.70;;;;;;;;;;143726;593;46010;-67
2022/02/19 10:35:21;;;;;;;12.35;6.20;;;;;;;;;;143726;571;46019;-67
2022/02/19 10:37:50;;;;;;;13.70;5.57;;;;;;;;;;143730;569;46022;-68
2022/02/19 10:40:43;;;;;;;9.15;5.05;;;;;;;;;;143724;580;47018;-68
2022/02/19 10:43:13;;;;;;;8.32;5.18;;;;;;;;;;143726;578;46010;-67
2022/02/19 10:45:54;;;;;;;11.25;5.65;;;;;;;;;;143727;642;46018;-67
2022/02/19 10:48:37;;;;;;;9.45;4.75;;;;;;;;;;143729;570;46022;-67
2022/02/19 10:51:13;;;;;;;10.00;5.15;;;;;;;;;;143728;602;46018;-67
2022/02/19 10:53:43;;;;;;;9.10;5.35;;;;;;;;;;143724;621;47027;-68
2022/02/19 10:56:15;;;;;;;10.00;5.60;;;;;;;;;;143727;591;46018;-68
2022/02/19 10:59:05;;;;;;;10.90;5.78;;;;;;;;;;143730;698;46023;-68
2022/02/19 11:01:52;;;;;;;9.10;4.57;;;;;;;;;;143725;582;46036;-69
2022/02/19 11:04:21;;;;;;;8.23;5.30;;;;;;;;;;143727;602;46010;-69
2022/02/19 11:06:48;;;;;;;9.43;5.10;;;;;;;;;;143726;569;46020;-71
2022/02/19 11:09:16;;;;;;;9.20;4.30;;;;;;;;;;143728;666;46020;-70
2022/02/19 11:11:46;;;;;;;12.02;5.80;;;;;;;;;;143724;586;46021;-70
2022/02/19 11:14:16;;;;;;;8.57;4.68;;;;;;;;;;143729;574;46010;-69
2022/02/19 11:16:44;;;;;;;7.72;5.07;;;;;;;;;;143727;591;46020;-70
2022/02/19 11:19:11;;;;;;;10.60;5.30;;;;;;;;;;143732;591;46021;-69
2022/02/19 11:21:39;;;;;;;12.25;6.12;;;;;;;;;;143727;689;46020;-69
2022/02/19 11:24:10;;;;;;;12.70;5.87;;;;;;;;;;143729;569;46010;-71
2022/02/19 11:26:38;;;;;;;11.20;5.20;;;;;;;;;;143725;687;46021;-69
2022/02/19 11:29:19;;;;;;;9.07;5.68;;;;;;;;;;143730;644;46010;-71
2022/02/19 11:31:47;;;;;;;11.18;6.40;;;;;;;;;;143730;579;45913;-71
2022/02/19 11:34:20;;;;;;;8.60;5.28;;;;;;;;;;143728;595;46010;-70
2022/02/19 11:36:47;;;;;;;11.65;5.70;;;;;;;;;;143726;725;46020;-71
2022/02/19 11:39:14;;;;;;;9.52;5.53;;;;;;;;;;143730;585;46020;-69
2022/02/19 11:41:45;;;;;;;11.52;6.55;;;;;;;;;;143728;573;46021;-70
2022/02/19 11:44:47;;;;;;;12.13;5.87;;;;;;;;;;143728;586;46010;-69
2022/02/19 11:47:31;;;;;;;11.43;6.65;;;;;;;;;;143729;569;46020;-70
2022/02/19 11:50:17;;;;;;;13.10;7.00;;;;;;;;;;143732;704;45030;-68
2022/02/19 11:52:44;;;;;;;15.18;7.37;;;;;;;;;;143728;739;46020;-70
2022/02/19 11:55:32;;;;;;;15.25;7.47;;;;;;;;;;143727;588;46021;-71
2022/02/19 11:58:06;;;;;;;12.07;7.43;;;;;;;;;;143726;608;46020;-68
2022/02/19 12:00:50;;;;;;;13.00;8.35;;;;;;;;;;143731;573;46010;-68
2022/02/19 12:03:31;;;;;;;16.52;8.77;;;;;;;;;;143727;569;46021;-68
2022/02/19 12:06:26;;;;;;;16.40;9.75;;;;;;;;;;143728;589;46010;-68
2022/02/19 12:09:22;;;;;;;13.52;8.82;;;;;;;;;;143727;585;46020;-70
2022/02/19 12:12:06;;;;;;;11.73;7.03;;;;;;;;;;143730;594;46039;-69
2022/02/19 12:14:51;;;;;;;15.95;7.60;;;;;;;;;;143727;608;46020;-67
2022/02/19 12:17:19;;;;;;;15.23;8.18;;;;;;;;;;143727;574;46011;-68
2022/02/19 12:20:03;;;;;;;12.02;7.37;;;;;;;;;;143728;579;46019;-67
2022/02/19 12:22:49;;;;;;;11.60;7.25;;;;;;;;;;143729;601;46022;-67
2022/02/19 12:25:16;;;;;;;11.35;7.65;;;;;;;;;;143728;570;46019;-69
2022/02/19 12:27:44;;;;;;;11.45;7.40;;;;;;;;;;143727;605;46010;-68
2022/02/19 12:30:37;;;;;;;12.27;7.78;;;;;;;;;;143726;620;46018;-67
2022/02/19 12:33:04;;;;;;;13.25;7.80;;;;;;;;;;143731;609;46010;-67
2022/02/19 12:35:36;;;;;;;10.60;7.20;;;;;;;;;;143726;672;46018;-67
2022/02/19 12:38:04;;;;;;;17.37;7.50;;;;;;;;;;143727;563;46010;-67
2022/02/19 12:40:32;;;;;;;13.07;7.30;;;;;;;;;;143725;615;46019;-68
2022/02/19 12:42:59;;;;;;;11.52;7.43;;;;;;;;;;143728;597;46022;-67
2022/02/19 12:45:26;;;;;;;11.60;7.25;;;;;;;;;;143727;603;46018;-68
2022/02/19 12:47:53;;;;;;;13.50;8.25;;;;;;;;;;143726;578;46023;-67
2022/02/19 12:50:21;;;;;;;11.43;7.20;;;;;;;;;;143727;593;46018;-67
2022/02/19 12:52:50;;;;;;;13.13;7.22;;;;;;;;;;143732;583;45022;-67
2022/02/19 12:55:19;;;;;;;11.57;6.62;;;;;;;;;;143722;627;46020;-66
2022/02/19 12:57:53;;;;;;;12.60;7.60;;;;;;;;;;143728;597;46010;-68
2022/02/19 13:00:21;;;;;;;12.57;7.60;;;;;;;;;;143727;617;46018;-68
2022/02/19 13:03:01;;;;;;;10.75;6.78;;;;;;;;;;143729;703;46022;-67
2022/02/19 13:05:29;;;;;;;10.15;6.18;;;;;;;;;;143727;570;46020;-67
2022/02/19 13:07:56;;;;;;;10.73;6.20;;;;;;;;;;143729;597;46010;-67
2022/02/19 13:10:24;;;;;;;10.68;6.40;;;;;;;;;;143728;584;46019;-67
2022/02/19 13:12:51;;;;;;;9.25;5.75;;;;;;;;;;143732;625;46010;-68
2022/02/19 13:15:20;;;;;;;9.48;6.10;;;;;;;;;;143726;563;46018;-67
2022/02/19 13:17:53;;;;;;;10.13;6.07;;;;;;;;;;143729;566;46010;-67
2022/02/19 13:20:21;;;;;;;10.20;6.57;;;;;;;;;;143728;566;46018;-66
2022/02/19 13:22:49;;;;;;;11.52;6.85;;;;;;;;;;143731;639;46022;-67
2022/02/19 13:25:17;;;;;;;11.63;6.97;;;;;;;;;;143728;622;46019;-67
2022/02/19 13:27:46;;;;;;;12.13;6.15;;;;;;;;;;143729;697;46010;-68
2022/02/19 13:30:15;;;;;;;14.73;7.68;;;;;;;;;;143729;577;46018;-67
2022/02/19 13:32:49;;;;;;;10.85;6.90;;;;;;;;;;143732;605;46010;-67
2022/02/19 13:35:29;;;;;;;16.17;7.57;;;;;;;;;;143728;586;46018;-66
2022/02/19 13:37:58;;;;;;;11.80;7.07;;;;;;;;;;143730;568;45920;-66
2022/02/19 13:40:30;;;;;;;10.63;6.25;;;;;;;;;;143728;598;46019;-68
2022/02/19 13:42:58;;;;;;;11.55;6.12;;;;;;;;;;143729;583;46022;-66
2022/02/19 13:45:37;;;;;;;10.85;6.53;;;;;;;;;;143727;570;46018;-66
2022/02/19 13:48:05;;;;;;;10.00;5.97;;;;;;;;;;143729;566;46010;-67
2022/02/19 13:50:41;;;;;;;10.00;5.78;;;;;;;;;;143728;669;46018;-66
2022/02/19 13:53:18;;;;;;;9.68;5.87;;;;;;;;;;143730;564;46022;-66
2022/02/19 13:55:50;;;;;;;12.45;6.85;;;;;;;;;;143728;628;46018;-66
2022/02/19 13:58:30;;;;;;;11.23;6.75;;;;;;;;;;143728;627;46010;-67
2022/02/19 14:01:20;;;;;;;10.43;5.68;;;;;;;;;;143728;623;46018;-66
2022/02/19 14:03:54;;;;;;;10.43;6.05;;;;;;;;;;143729;907;46023;-67
2022/02/19 14:07:06;;;;;;;10.80;5.85;;;;;;;;;;143727;580;46018;-66
2022/02/19 14:09:33;;;;;;;10.43;6.12;;;;;;;;;;143727;767;46023;-67
2022/02/19 14:12:01;;;;;;;9.32;6.05;;;;;;;;;;143729;809;46018;-67
2022/02/19 14:14:34;;;;;;;11.38;5.87;;;;;;;;;;143732;858;46010;-66
2022/02/19 14:17:07;;;;;;;11.75;5.82;;;;;;;;;;143728;716;46018;-66
2022/02/19 14:19:34;;;;;;;9.00;6.00;;;;;;;;;;143729;643;46010;-67
2022/02/19 14:22:11;;;;;;;9.40;4.72;;;;;;;;;;143728;569;46018;-67
2022/02/19 14:25:01;;;;;;;10.63;6.18;;;;;;;;;;143730;789;46025;-67
2022/02/19 14:27:28;;;;;;;7.68;4.90;;;;;;;;;;143729;688;46018;-67
2022/02/19 14:29:56;;;;;;;9.65;4.95;;;;;;;;;;143729;565;46010;-66
2022/02/19 14:32:23;;;;;;;8.38;5.28;;;;;;;;;;143728;583;46019;-66
2022/02/19 14:34:50;;;;;;;7.90;4.90;;;;;;;;;;143730;611;46022;-66
2022/02/19 14:37:19;;;;;;;8.02;4.82;;;;;;;;;;143729;564;46018;-65
2022/02/19 14:39:46;;;;;;;8.50;5.03;;;;;;;;;;143729;811;45998;-66
2022/02/19 14:42:13;;;;;;;8.10;5.55;;;;;;;;;;143728;661;46018;-67
2022/02/19 14:44:40;;;;;;;9.63;5.47;;;;;;;;;;143732;665;46010;-66
2022/02/19 14:47:07;;;;;;;9.38;5.62;;;;;;;;;;143726;751;46019;-66
2022/02/19 14:49:35;;;;;;;10.93;5.90;;;;;;;;;;143729;633;46010;-66
2022/02/19 14:52:02;;;;;;;10.63;5.10;;;;;;;;;;143728;718;46018;-66
2022/02/19 14:54:30;;;;;;;8.00;5.03;;;;;;;;;;143732;591;46010;-66